createdAt,value
2017-10-03T00:00:42.844Z,960.4
2017-10-03T00:01:53.116Z,960.42
2017-10-03T00:03:03.065Z,960.4
2017-10-03T00:04:13.335Z,960.39
2017-10-03T00:05:23.604Z,960.38
2017-10-03T00:06:33.879Z,960.37
2017-10-03T00:07:44.153Z,960.34
2017-10-03T00:08:54.419Z,960.34
2017-10-03T00:10:04.692Z,960.3
2017-10-03T00:11:14.639Z,960.28
2017-10-03T00:12:24.904Z,960.26
2017-10-03T00:13:34.852Z,960.27
2017-10-03T00:14:45.136Z,960.24
2017-10-03T00:15:55.086Z,960.26
2017-10-03T00:17:05.038Z,960.29
2017-10-03T00:18:15.312Z,960.32
2017-10-03T00:19:25.585Z,960.31
2017-10-03T00:20:35.857Z,960.28
2017-10-03T00:21:46.127Z,960.31
2017-10-03T00:22:56.076Z,960.31
2017-10-03T00:24:06.360Z,960.3
2017-10-03T00:25:16.311Z,960.26
2017-10-03T00:26:26.585Z,960.25
2017-10-03T00:27:36.861Z,960.23
2017-10-03T00:28:47.124Z,960.24
2017-10-03T00:29:57.392Z,960.24
2017-10-03T00:31:07.663Z,960.28
2017-10-03T00:32:17.607Z,960.25
2017-10-03T00:33:27.876Z,960.27
2017-10-03T00:34:37.824Z,960.28
2017-10-03T00:35:48.091Z,960.31
2017-10-03T00:36:58.366Z,960.3
2017-10-03T00:38:08.636Z,960.29
2017-10-03T00:39:18.909Z,960.29
2017-10-03T00:40:29.181Z,960.23
2017-10-03T00:41:39.133Z,960.22
2017-10-03T00:42:49.084Z,960.2
2017-10-03T00:43:59.032Z,960.18
2017-10-03T00:45:08.661Z,960.18
2017-10-03T00:46:18.934Z,960.21
2017-10-03T00:47:28.570Z,960.15
2017-10-03T00:48:38.846Z,960.19
2017-10-03T00:49:49.117Z,960.19
2017-10-03T00:50:58.742Z,960.2
2017-10-03T00:52:08.690Z,960.2
2017-10-03T00:53:18.957Z,960.2
2017-10-03T00:54:28.581Z,960.22
2017-10-03T00:55:38.532Z,960.23
2017-10-03T00:56:48.480Z,960.19
2017-10-03T00:57:58.431Z,960.21
2017-10-03T00:59:08.376Z,960.24
2017-10-03T01:00:18.320Z,960.22
2017-10-03T01:01:28.275Z,960.24
2017-10-03T01:02:38.551Z,960.22
2017-10-03T01:03:48.502Z,960.22
2017-10-03T01:04:58.768Z,960.23
2017-10-03T01:06:08.395Z,960.21
2017-10-03T01:07:18.665Z,960.19
2017-10-03T01:08:28.931Z,960.22
2017-10-03T01:09:39.210Z,960.19
2017-10-03T01:10:49.481Z,960.25
2017-10-03T01:11:59.747Z,960.28
2017-10-03T01:13:10.019Z,960.3
2017-10-03T01:14:20.283Z,960.27
2017-10-03T01:15:30.554Z,960.27
2017-10-03T01:16:40.508Z,960.29
2017-10-03T01:17:50.453Z,960.23
2017-10-03T01:18:59.763Z,960.22
2017-10-03T01:20:09.718Z,960.23
2017-10-03T01:21:19.992Z,960.17
2017-10-03T01:22:30.279Z,960.13
2017-10-03T01:23:40.223Z,960.14
2017-10-03T01:24:50.558Z,960.12
2017-10-03T01:26:00.510Z,960.13
2017-10-03T01:27:09.816Z,960.2
2017-10-03T01:28:19.443Z,960.21
2017-10-03T01:29:29.070Z,960.24
2017-10-03T01:30:39.018Z,960.25
2017-10-03T01:31:49.298Z,960.22
2017-10-03T01:32:59.239Z,960.18
2017-10-03T01:34:09.197Z,960.21
2017-10-03T01:35:18.825Z,960.18
2017-10-03T01:36:29.102Z,960.2
2017-10-03T01:37:39.055Z,960.18
2017-10-03T01:38:49.327Z,960.17
2017-10-03T01:39:59.272Z,960.18
2017-10-03T01:41:09.566Z,960.19
2017-10-03T01:42:19.512Z,960.21
2017-10-03T01:43:29.461Z,960.17
2017-10-03T01:44:39.760Z,960.15
2017-10-03T01:45:50.026Z,960.17
2017-10-03T01:46:59.978Z,960.2
2017-10-03T01:48:10.248Z,960.13
2017-10-03T01:49:20.207Z,960.14
2017-10-03T01:50:30.479Z,960.11
2017-10-03T01:51:40.106Z,960.08
2017-10-03T01:52:50.057Z,960.1
2017-10-03T01:54:00.327Z,960.1
2017-10-03T01:55:09.960Z,960.14
2017-10-03T01:56:20.232Z,960.13
2017-10-03T01:57:30.186Z,960.12
2017-10-03T01:58:40.472Z,960.11
2017-10-03T01:59:50.736Z,960.1
2017-10-03T02:01:01.009Z,960.1
2017-10-03T02:02:11.285Z,960.13
2017-10-03T02:03:21.552Z,960.07
2017-10-03T02:04:31.179Z,960.02
2017-10-03T02:05:41.453Z,960.09
2017-10-03T02:06:51.735Z,960.07
2017-10-03T02:08:01.682Z,960.05
2017-10-03T02:09:11.632Z,960.07
2017-10-03T02:10:21.582Z,960.07
2017-10-03T02:11:31.676Z,960.08
2017-10-03T02:12:41.624Z,960.07
2017-10-03T02:13:51.569Z,960.07
2017-10-03T02:15:01.198Z,960.07
2017-10-03T02:16:11.473Z,960.03
2017-10-03T02:17:21.739Z,959.99
2017-10-03T02:18:32.013Z,960.02
2017-10-03T02:19:42.280Z,960.06
2017-10-03T02:20:52.591Z,960
2017-10-03T02:22:02.226Z,960
2017-10-03T02:23:12.499Z,960.01
2017-10-03T02:24:22.770Z,960
2017-10-03T02:25:33.039Z,960.01
2017-10-03T02:26:43.309Z,960.01
2017-10-03T02:27:53.255Z,960.01
2017-10-03T02:29:03.523Z,959.98
2017-10-03T02:30:13.813Z,960
2017-10-03T02:31:24.095Z,959.94
2017-10-03T02:32:34.367Z,959.95
2017-10-03T02:33:44.637Z,959.93
2017-10-03T02:34:54.264Z,959.94
2017-10-03T02:36:04.230Z,959.93
2017-10-03T02:37:14.503Z,959.93
2017-10-03T02:38:24.773Z,959.9
2017-10-03T02:39:34.718Z,959.87
2017-10-03T02:40:44.676Z,959.91
2017-10-03T02:41:54.631Z,959.92
2017-10-03T02:43:04.907Z,959.95
2017-10-03T02:44:14.854Z,959.97
2017-10-03T02:45:25.134Z,960
2017-10-03T02:46:35.410Z,960.04
2017-10-03T02:47:45.361Z,960.05
2017-10-03T02:48:55.307Z,960.07
2017-10-03T02:50:04.938Z,960.06
2017-10-03T02:51:14.565Z,960.09
2017-10-03T02:52:24.848Z,960.06
2017-10-03T02:53:35.118Z,960.01
2017-10-03T02:54:45.404Z,960.02
2017-10-03T02:55:55.353Z,960.05
2017-10-03T02:57:05.623Z,960.02
2017-10-03T02:58:15.576Z,960.03
2017-10-03T02:59:25.846Z,960.02
2017-10-03T03:00:35.792Z,960.05
2017-10-03T03:01:45.754Z,960.07
2017-10-03T03:02:56.023Z,960.06
2017-10-03T03:04:06.289Z,960.12
2017-10-03T03:05:16.554Z,960.12
2017-10-03T03:06:26.823Z,960.09
2017-10-03T03:07:36.775Z,960.09
2017-10-03T03:08:47.049Z,960.12
2017-10-03T03:09:56.995Z,960.15
2017-10-03T03:11:07.266Z,960.11
2017-10-03T03:12:17.212Z,960.12
2017-10-03T03:13:27.482Z,960.09
2017-10-03T03:14:37.456Z,960.09
2017-10-03T03:15:47.408Z,960.07
2017-10-03T03:16:57.357Z,960.06
2017-10-03T03:18:07.310Z,960.02
2017-10-03T03:19:17.261Z,960.01
2017-10-03T03:20:27.530Z,959.98
2017-10-03T03:21:37.793Z,959.97
2017-10-03T03:22:47.751Z,959.97
2017-10-03T03:23:57.702Z,959.94
2017-10-03T03:25:07.654Z,959.97
2017-10-03T03:26:17.933Z,959.95
2017-10-03T03:27:28.200Z,960.01
2017-10-03T03:28:38.468Z,960
2017-10-03T03:29:48.417Z,960.02
2017-10-03T03:30:58.363Z,959.98
2017-10-03T03:32:07.992Z,959.99
2017-10-03T03:33:17.617Z,959.98
2017-10-03T03:34:27.567Z,959.94
2017-10-03T03:35:37.869Z,959.9
2017-10-03T03:36:48.139Z,959.9
2017-10-03T03:37:58.410Z,959.89
2017-10-03T03:39:08.037Z,959.88
2017-10-03T03:40:17.665Z,959.94
2017-10-03T03:41:27.933Z,959.92
2017-10-03T03:42:37.879Z,959.98
2017-10-03T03:43:47.826Z,960.01
2017-10-03T03:44:57.779Z,959.97
2017-10-03T03:46:08.051Z,959.95
2017-10-03T03:47:18.321Z,959.98
2017-10-03T03:48:28.616Z,960
2017-10-03T03:49:38.566Z,959.98
2017-10-03T03:50:48.836Z,960.04
2017-10-03T03:51:58.786Z,960.09
2017-10-03T03:53:09.057Z,960.07
2017-10-03T03:54:19.322Z,960.09
2017-10-03T03:55:29.586Z,960.08
2017-10-03T03:56:39.856Z,960.11
2017-10-03T03:57:49.808Z,960.15
2017-10-03T03:58:59.755Z,960.1
2017-10-03T04:00:09.380Z,960.08
2017-10-03T04:01:19.326Z,960.07
2017-10-03T04:02:28.952Z,960.08
2017-10-03T04:03:38.905Z,960.07
2017-10-03T04:04:48.859Z,960.12
2017-10-03T04:05:59.127Z,960.1
2017-10-03T04:07:08.434Z,960.11
2017-10-03T04:08:18.704Z,960.1
2017-10-03T04:09:28.976Z,960.13
2017-10-03T04:10:39.241Z,960.08
2017-10-03T04:11:49.507Z,960.09
2017-10-03T04:12:59.454Z,960.14
2017-10-03T04:14:09.403Z,960.14
2017-10-03T04:15:19.676Z,960.1
2017-10-03T04:16:29.625Z,960.14
2017-10-03T04:17:39.577Z,960.14
2017-10-03T04:18:49.519Z,960.13
2017-10-03T04:19:59.462Z,960.14
2017-10-03T04:21:09.412Z,960.18
2017-10-03T04:22:19.043Z,960.18
2017-10-03T04:23:28.996Z,960.17
2017-10-03T04:24:39.280Z,960.14
2017-10-03T04:25:49.224Z,960.11
2017-10-03T04:26:59.173Z,960.09
2017-10-03T04:28:08.800Z,960.12
2017-10-03T04:29:18.744Z,960.12
2017-10-03T04:30:29.013Z,960.11
2017-10-03T04:31:38.974Z,960.12
2017-10-03T04:32:49.261Z,960.14
2017-10-03T04:33:59.209Z,960.13
2017-10-03T04:35:09.156Z,960.05
2017-10-03T04:36:19.104Z,960.02
2017-10-03T04:37:29.047Z,960.03
2017-10-03T04:38:38.995Z,960
2017-10-03T04:39:49.262Z,959.99
2017-10-03T04:40:59.529Z,960.01
2017-10-03T04:42:09.801Z,960.01
2017-10-03T04:43:20.070Z,960
2017-10-03T04:44:30.343Z,959.97
2017-10-03T04:45:40.296Z,960.03
2017-10-03T04:46:50.253Z,960.01
2017-10-03T04:48:00.525Z,960.04
2017-10-03T04:49:10.470Z,960
2017-10-03T04:50:20.419Z,960.01
2017-10-03T04:51:30.723Z,960.07
2017-10-03T04:52:41.020Z,960.07
2017-10-03T04:53:50.973Z,960.09
2017-10-03T04:55:00.924Z,960.09
2017-10-03T04:56:10.886Z,960.11
2017-10-03T04:57:20.838Z,960.07
2017-10-03T04:58:31.106Z,960.08
2017-10-03T04:59:41.374Z,960.01
2017-10-03T05:00:51.000Z,960.05
2017-10-03T05:02:00.947Z,960.07
2017-10-03T05:03:10.893Z,960.04
2017-10-03T05:04:21.159Z,960.02
2017-10-03T05:05:31.423Z,959.99
2017-10-03T05:06:41.371Z,960.04
2017-10-03T05:07:51.326Z,960.05
2017-10-03T05:09:01.601Z,960.08
2017-10-03T05:10:11.553Z,960.08
2017-10-03T05:11:21.505Z,960.05
2017-10-03T05:12:31.454Z,960.09
2017-10-03T05:13:41.401Z,960.06
2017-10-03T05:14:51.025Z,960.07
2017-10-03T05:16:00.972Z,960.07
2017-10-03T05:17:11.246Z,960.08
2017-10-03T05:18:21.518Z,960.13
2017-10-03T05:19:30.824Z,960.11
2017-10-03T05:20:41.098Z,960.1
2017-10-03T05:21:51.049Z,960.16
2017-10-03T05:23:00.999Z,960.18
2017-10-03T05:24:11.279Z,960.17
2017-10-03T05:25:21.556Z,960.14
2017-10-03T05:26:31.180Z,960.16
2017-10-03T05:27:41.456Z,960.16
2017-10-03T05:28:51.737Z,960.14
2017-10-03T05:30:01.701Z,960.14
2017-10-03T05:31:11.655Z,960.14
2017-10-03T05:32:21.932Z,960.13
2017-10-03T05:33:31.883Z,960.13
2017-10-03T05:34:41.859Z,960.17
2017-10-03T05:35:52.132Z,960.11
2017-10-03T05:37:02.405Z,960.11
2017-10-03T05:38:12.691Z,960.08
2017-10-03T05:39:22.641Z,960.1
2017-10-03T05:40:32.918Z,960.12
2017-10-03T05:41:43.184Z,960.11
2017-10-03T05:42:53.171Z,960.05
2017-10-03T05:44:03.122Z,960.05
2017-10-03T05:45:13.395Z,960.06
2017-10-03T05:46:23.343Z,960.03
2017-10-03T05:47:33.304Z,960.05
2017-10-03T05:48:43.585Z,960.1
2017-10-03T05:49:53.212Z,960.08
2017-10-03T05:51:02.525Z,960.06
2017-10-03T05:52:12.802Z,960.09
2017-10-03T05:53:23.076Z,960.05
2017-10-03T05:54:33.023Z,960.07
2017-10-03T05:55:43.306Z,960.04
2017-10-03T05:56:52.932Z,960.03
2017-10-03T05:58:02.565Z,960.04
2017-10-03T05:59:12.522Z,960.03
2017-10-03T06:00:22.475Z,960.05
2017-10-03T06:01:32.746Z,960.06
2017-10-03T06:02:43.023Z,960.05
2017-10-03T06:03:53.295Z,960.06
2017-10-03T06:05:03.564Z,960.08
2017-10-03T06:06:13.833Z,960.08
2017-10-03T06:07:24.105Z,960.06
2017-10-03T06:08:34.057Z,960.08
2017-10-03T06:09:43.683Z,960.05
2017-10-03T06:10:53.634Z,960.07
2017-10-03T06:12:03.916Z,960.12
2017-10-03T06:13:14.197Z,960.11
2017-10-03T06:14:24.148Z,960.11
2017-10-03T06:15:34.414Z,960.11
2017-10-03T06:16:44.362Z,960.12
2017-10-03T06:17:54.312Z,960.08
2017-10-03T06:19:04.587Z,960.1
2017-10-03T06:20:13.897Z,960.12
2017-10-03T06:21:23.856Z,960.14
2017-10-03T06:22:34.145Z,960.17
2017-10-03T06:23:44.100Z,960.16
2017-10-03T06:24:54.069Z,960.18
2017-10-03T06:26:04.450Z,960.14
2017-10-03T06:27:13.517Z,960.15
2017-10-03T06:28:23.812Z,960.14
2017-10-03T06:29:33.929Z,960.16
2017-10-03T06:34:32.524Z,960.19
2017-10-03T06:35:42.822Z,960.19
2017-10-03T06:36:53.097Z,960.2
2017-10-03T06:38:03.043Z,960.25
2017-10-03T06:39:12.670Z,960.28
2017-10-03T06:40:22.633Z,960.29
2017-10-03T06:41:32.598Z,960.33
2017-10-03T06:42:42.380Z,960.35
2017-10-03T06:43:52.094Z,960.34
2017-10-03T06:45:02.141Z,960.33
2017-10-03T06:46:12.179Z,960.32
2017-10-03T06:47:22.547Z,960.32
2017-10-03T06:48:32.924Z,960.33
2017-10-03T06:49:42.647Z,960.39
2017-10-03T06:50:52.700Z,960.34
2017-10-03T06:52:02.423Z,960.37
2017-10-03T06:53:12.802Z,960.4
2017-10-03T06:54:22.853Z,960.37
2017-10-03T06:55:33.217Z,960.38
2017-10-03T06:56:43.601Z,960.33
2017-10-03T06:57:53.985Z,960.33
2017-10-03T06:59:04.044Z,960.29
2017-10-03T07:00:14.088Z,960.27
2017-10-03T07:01:24.134Z,960.29
2017-10-03T07:02:34.182Z,960.28
2017-10-03T07:03:44.570Z,960.28
2017-10-03T07:04:54.604Z,960.28
2017-10-03T07:06:04.565Z,960.3
2017-10-03T07:07:14.201Z,960.3
2017-10-03T07:08:24.485Z,960.26
2017-10-03T07:09:34.758Z,960.3
2017-10-03T07:10:44.705Z,960.29
2017-10-03T07:11:54.662Z,960.3
2017-10-03T07:13:04.932Z,960.29
2017-10-03T07:14:14.882Z,960.25
2017-10-03T07:15:25.156Z,960.3
2017-10-03T07:16:35.432Z,960.21
2017-10-03T07:17:45.382Z,960.23
2017-10-03T07:18:54.890Z,960.23
2017-10-03T07:20:04.520Z,960.23
2017-10-03T07:21:14.817Z,960.25
2017-10-03T07:22:25.085Z,960.24
2017-10-03T07:23:35.052Z,960.24
2017-10-03T07:24:45.480Z,960.26
2017-10-03T07:25:55.837Z,960.25
2017-10-03T07:27:05.876Z,960.29
2017-10-03T07:28:15.926Z,960.25
2017-10-03T07:29:26.298Z,960.22
2017-10-03T07:30:36.895Z,960.25
2017-10-03T07:31:47.991Z,960.25
2017-10-03T07:32:58.366Z,960.29
2017-10-03T07:34:08.834Z,960.27
2017-10-03T07:35:19.209Z,960.28
2017-10-03T07:36:29.583Z,960.3
2017-10-03T07:37:39.305Z,960.32
2017-10-03T07:38:49.362Z,960.34
2017-10-03T07:39:59.413Z,960.33
2017-10-03T07:41:09.135Z,960.32
2017-10-03T07:42:19.512Z,960.35
2017-10-03T07:43:29.566Z,960.38
2017-10-03T07:44:39.956Z,960.38
2017-10-03T07:45:50.020Z,960.41
2017-10-03T07:47:00.127Z,960.42
2017-10-03T07:48:10.177Z,960.41
2017-10-03T07:49:20.547Z,960.43
2017-10-03T07:50:30.596Z,960.43
2017-10-03T07:51:41.081Z,960.47
2017-10-03T07:52:51.221Z,960.43
2017-10-03T07:54:01.389Z,960.46
2017-10-03T07:55:11.197Z,960.41
2017-10-03T07:56:20.978Z,960.43
2017-10-03T07:57:31.361Z,960.46
2017-10-03T07:58:41.406Z,960.51
2017-10-03T07:59:51.798Z,960.44
2017-10-03T08:01:01.605Z,960.46
2017-10-03T08:02:11.744Z,960.43
2017-10-03T08:03:21.194Z,960.49
2017-10-03T08:04:31.650Z,960.4
2017-10-03T08:05:42.066Z,960.39
2017-10-03T08:06:52.439Z,960.35
2017-10-03T08:08:02.495Z,960.33
2017-10-03T08:09:12.215Z,960.3
2017-10-03T08:10:22.261Z,960.38
2017-10-03T08:11:32.322Z,960.35
2017-10-03T08:12:42.693Z,960.39
2017-10-03T08:13:53.068Z,960.4
2017-10-03T08:15:03.444Z,960.42
2017-10-03T08:16:13.827Z,960.42
2017-10-03T08:17:23.972Z,960.43
2017-10-03T08:18:33.793Z,960.46
2017-10-03T08:19:44.277Z,960.43
2017-10-03T08:20:54.767Z,960.42
2017-10-03T08:22:05.239Z,960.45
2017-10-03T08:23:14.713Z,960.44
2017-10-03T08:24:25.174Z,960.45
2017-10-03T08:25:35.656Z,960.47
2017-10-03T08:26:45.809Z,960.49
2017-10-03T08:27:55.958Z,960.49
2017-10-03T08:29:06.441Z,960.47
2017-10-03T08:30:16.917Z,960.48
2017-10-03T08:31:27.053Z,960.45
2017-10-03T08:32:37.190Z,960.5
2017-10-03T08:33:47.333Z,960.47
2017-10-03T08:34:57.474Z,960.46
2017-10-03T08:36:07.604Z,960.41
2017-10-03T08:37:18.070Z,960.42
2017-10-03T08:38:29.412Z,960.45
2017-10-03T08:39:39.222Z,960.47
2017-10-03T08:40:49.279Z,960.47
2017-10-03T08:41:59.423Z,960.5
2017-10-03T08:43:09.796Z,960.49
2017-10-03T08:44:20.180Z,960.43
2017-10-03T08:45:30.211Z,960.47
2017-10-03T08:46:40.589Z,960.51
2017-10-03T08:47:50.644Z,960.55
2017-10-03T08:49:00.694Z,960.56
2017-10-03T08:50:11.073Z,960.56
2017-10-03T08:51:21.451Z,960.65
2017-10-03T08:52:31.509Z,960.63
2017-10-03T08:53:41.562Z,960.61
2017-10-03T08:54:51.951Z,960.61
2017-10-03T08:56:01.998Z,960.58
2017-10-03T08:57:11.395Z,960.6
2017-10-03T08:58:21.774Z,960.59
2017-10-03T08:59:32.146Z,960.59
2017-10-03T09:00:42.604Z,960.61
2017-10-03T09:01:53.020Z,960.64
2017-10-03T09:03:03.396Z,960.65
2017-10-03T09:04:13.766Z,960.67
2017-10-03T09:05:23.815Z,960.67
2017-10-03T09:06:34.182Z,960.73
2017-10-03T09:07:44.572Z,960.73
2017-10-03T09:08:54.378Z,960.67
2017-10-03T09:10:04.753Z,960.75
2017-10-03T09:11:14.476Z,960.74
2017-10-03T09:12:24.200Z,960.77
2017-10-03T09:13:34.572Z,960.73
2017-10-03T09:14:44.947Z,960.76
2017-10-03T09:15:54.674Z,960.75
2017-10-03T09:17:04.723Z,960.76
2017-10-03T09:18:14.768Z,960.79
2017-10-03T09:19:25.161Z,960.79
2017-10-03T09:20:34.873Z,960.81
2017-10-03T09:21:44.909Z,960.84
2017-10-03T09:22:54.955Z,960.83
2017-10-03T09:24:05.329Z,960.76
2017-10-03T09:25:15.726Z,960.87
2017-10-03T09:26:25.785Z,960.86
2017-10-03T09:27:35.857Z,960.85
2017-10-03T09:28:45.580Z,960.83
2017-10-03T09:29:55.956Z,960.89
2017-10-03T09:31:06.340Z,960.87
2017-10-03T09:32:16.390Z,960.87
2017-10-03T09:33:26.764Z,960.89
2017-10-03T09:34:37.138Z,960.91
2017-10-03T09:35:47.178Z,960.91
2017-10-03T09:36:57.553Z,960.89
2017-10-03T09:38:07.907Z,960.92
2017-10-03T09:39:17.865Z,960.99
2017-10-03T09:40:28.134Z,960.98
2017-10-03T09:41:38.405Z,960.98
2017-10-03T09:42:48.034Z,961
2017-10-03T09:43:57.992Z,961
2017-10-03T09:45:07.949Z,961.03
2017-10-03T09:46:17.907Z,961.01
2017-10-03T09:47:27.863Z,961.02
2017-10-03T09:48:37.171Z,960.98
2017-10-03T09:49:47.446Z,961
2017-10-03T09:50:57.719Z,961
2017-10-03T09:52:07.997Z,961.02
2017-10-03T09:53:17.955Z,960.98
2017-10-03T09:54:27.582Z,960.96
2017-10-03T09:55:37.533Z,960.96
2017-10-03T09:56:47.168Z,960.96
2017-10-03T09:57:57.440Z,960.93
2017-10-03T09:59:07.714Z,960.95
2017-10-03T10:00:17.672Z,960.96
2017-10-03T10:01:27.630Z,960.94
2017-10-03T10:02:37.579Z,961
2017-10-03T10:03:47.886Z,961.01
2017-10-03T10:04:57.937Z,960.97
2017-10-03T10:06:07.897Z,960.98
2017-10-03T10:07:17.856Z,961
2017-10-03T10:08:27.487Z,960.98
2017-10-03T10:09:37.437Z,961.03
2017-10-03T10:10:47.397Z,961.08
2017-10-03T10:11:57.357Z,961.12
2017-10-03T10:13:07.627Z,961.02
2017-10-03T10:14:17.587Z,961
2017-10-03T10:15:27.880Z,961.04
2017-10-03T10:16:39.841Z,961.01
2017-10-03T10:17:49.790Z,961.01
2017-10-03T10:19:00.066Z,961.01
2017-10-03T10:20:09.700Z,961.03
2017-10-03T10:21:19.658Z,960.99
2017-10-03T10:22:29.932Z,960.98
2017-10-03T10:23:40.211Z,960.94
2017-10-03T10:24:50.175Z,960.92
2017-10-03T10:26:00.457Z,960.96
2017-10-03T10:27:10.444Z,961.03
2017-10-03T10:28:20.413Z,961.06
2017-10-03T10:29:30.364Z,961.05
2017-10-03T10:30:39.678Z,961.06
2017-10-03T10:31:49.312Z,961.02
2017-10-03T10:32:58.943Z,961.02
2017-10-03T10:34:09.217Z,961.03
2017-10-03T10:35:19.495Z,961.06
2017-10-03T10:36:29.771Z,961.04
2017-10-03T10:37:39.728Z,961.04
2017-10-03T10:38:50.004Z,961.03
2017-10-03T10:39:59.960Z,961.03
2017-10-03T10:41:09.937Z,961.01
2017-10-03T10:42:20.052Z,961
2017-10-03T10:43:29.696Z,960.97
2017-10-03T10:44:39.645Z,961.03
2017-10-03T10:45:48.954Z,961.07
2017-10-03T10:46:58.596Z,961.04
2017-10-03T10:48:08.552Z,961.08
2017-10-03T10:49:18.507Z,961.08
2017-10-03T10:50:28.454Z,961.06
2017-10-03T10:51:38.732Z,961.11
2017-10-03T10:52:48.366Z,961.07
2017-10-03T10:53:58.639Z,961.08
2017-10-03T10:55:08.311Z,961.05
2017-10-03T10:56:18.583Z,961.02
2017-10-03T10:57:28.859Z,961.02
2017-10-03T10:58:39.145Z,961.03
2017-10-03T10:59:48.917Z,961.07
2017-10-03T11:00:58.990Z,961.07
2017-10-03T11:02:08.947Z,961.13
2017-10-03T11:03:18.582Z,961.16
2017-10-03T11:04:28.858Z,961.22
2017-10-03T11:05:38.808Z,961.23
2017-10-03T11:06:49.083Z,961.32
2017-10-03T11:07:59.039Z,961.24
2017-10-03T11:09:09.319Z,961.26
2017-10-03T11:10:19.591Z,961.29
2017-10-03T11:11:29.881Z,961.29
2017-10-03T11:12:39.832Z,961.25
2017-10-03T11:13:49.792Z,961.1
2017-10-03T11:14:59.744Z,961.1
2017-10-03T11:16:10.021Z,961.08
2017-10-03T11:17:20.312Z,961.07
2017-10-03T11:18:29.987Z,961.23
2017-10-03T11:19:40.268Z,961.27
2017-10-03T11:20:52.934Z,961.2
2017-10-03T11:22:03.034Z,961.25
2017-10-03T11:23:12.666Z,961.22
2017-10-03T11:24:22.301Z,961.01
2017-10-03T11:25:32.258Z,961.24
2017-10-03T11:26:42.213Z,961.24
2017-10-03T11:27:52.497Z,961.21
2017-10-03T11:29:02.449Z,961.21
2017-10-03T11:30:12.413Z,961.2
2017-10-03T11:31:22.714Z,961.18
2017-10-03T11:32:32.994Z,961.18
2017-10-03T11:33:42.952Z,961.21
2017-10-03T11:34:53.245Z,961.31
2017-10-03T11:36:03.521Z,961.24
2017-10-03T11:37:13.160Z,961.3
2017-10-03T11:38:23.438Z,961.02
2017-10-03T11:39:33.077Z,961.27
2017-10-03T11:40:43.362Z,961.23
2017-10-03T11:41:53.649Z,961.14
2017-10-03T11:43:03.617Z,961.22
2017-10-03T11:44:13.900Z,961.21
2017-10-03T11:45:24.178Z,961.28
2017-10-03T11:46:34.147Z,961.34
2017-10-03T11:47:43.789Z,961.28
2017-10-03T11:48:53.766Z,961.31
2017-10-03T11:50:03.729Z,961.3
2017-10-03T11:51:13.369Z,961.42
2017-10-03T11:52:23.334Z,961.47
2017-10-03T11:53:33.615Z,961.48
2017-10-03T11:54:43.910Z,961.29
2017-10-03T11:55:53.876Z,961.66
2017-10-03T11:57:03.841Z,961.24
2017-10-03T11:58:13.804Z,961.23
2017-10-03T11:59:24.087Z,961.17
2017-10-03T12:00:34.381Z,961.21
2017-10-03T12:01:44.672Z,961.55
2017-10-03T12:02:54.632Z,961.51
2017-10-03T12:04:04.921Z,961.34
2017-10-03T12:05:14.882Z,961.31
2017-10-03T12:06:25.165Z,961.35
2017-10-03T12:07:35.471Z,961.46
2017-10-03T12:08:45.764Z,961.27
2017-10-03T12:09:55.724Z,961.26
2017-10-03T12:11:05.362Z,961.31
2017-10-03T12:12:15.334Z,961.34
2017-10-03T12:13:25.616Z,961.35
2017-10-03T12:14:35.894Z,961.38
2017-10-03T12:15:46.175Z,961.39
2017-10-03T12:16:56.480Z,961.33
2017-10-03T12:18:05.815Z,961.23
2017-10-03T12:19:15.770Z,961.25
2017-10-03T12:20:25.728Z,961.3
2017-10-03T12:21:36.055Z,961.26
2017-10-03T12:22:46.008Z,961.35
2017-10-03T12:23:55.653Z,961.47
2017-10-03T12:25:05.317Z,961.6
2017-10-03T12:26:15.606Z,961.6
2017-10-03T12:27:25.895Z,961.65
2017-10-03T12:28:35.848Z,961.65
2017-10-03T12:29:46.130Z,961.71
2017-10-03T12:30:56.084Z,961.52
2017-10-03T12:32:06.044Z,961.64
2017-10-03T12:33:16.323Z,961.64
2017-10-03T12:34:26.606Z,961.63
2017-10-03T12:35:36.580Z,961.61
2017-10-03T12:36:46.547Z,961.67
2017-10-03T12:37:56.506Z,961.45
2017-10-03T12:39:06.468Z,961.45
2017-10-03T12:40:16.778Z,961.43
2017-10-03T12:41:27.055Z,961.49
2017-10-03T12:42:37.333Z,961.42
2017-10-03T12:43:47.297Z,961.4
2017-10-03T12:44:57.254Z,961.41
2017-10-03T12:46:07.534Z,961.45
2017-10-03T12:47:17.814Z,961.45
2017-10-03T12:48:27.446Z,961.43
2017-10-03T12:49:37.406Z,961.41
2017-10-03T12:50:47.676Z,961.46
2017-10-03T12:51:56.990Z,961.41
2017-10-03T12:53:07.285Z,961.4
2017-10-03T12:54:17.576Z,961.42
2017-10-03T12:55:27.857Z,961.46
2017-10-03T12:56:37.812Z,961.42
2017-10-03T12:57:47.775Z,961.46
2017-10-03T12:58:57.731Z,961.44
2017-10-03T13:00:08.019Z,961.47
2017-10-03T13:01:18.295Z,961.47
2017-10-03T13:02:28.580Z,961.49
2017-10-03T13:03:38.863Z,961.45
2017-10-03T13:04:48.819Z,961.5
2017-10-03T13:05:59.099Z,961.45
2017-10-03T13:07:09.392Z,961.51
2017-10-03T13:08:19.672Z,961.49
2017-10-03T13:09:29.953Z,961.46
2017-10-03T13:10:40.336Z,961.43
2017-10-03T13:11:49.971Z,961.41
2017-10-03T13:12:59.607Z,961.39
2017-10-03T13:14:09.897Z,961.41
2017-10-03T13:15:20.170Z,961.4
2017-10-03T13:16:30.454Z,961.45
2017-10-03T13:17:40.729Z,961.46
2017-10-03T13:18:50.688Z,961.44
2017-10-03T13:20:00.638Z,961.46
2017-10-03T13:21:10.592Z,961.47
2017-10-03T13:22:20.874Z,961.49
2017-10-03T13:23:30.832Z,961.54
2017-10-03T13:24:41.104Z,961.64
2017-10-03T13:25:51.381Z,961.53
2017-10-03T13:27:01.013Z,961.53
2017-10-03T13:28:11.322Z,961.48
2017-10-03T13:29:21.592Z,961.54
2017-10-03T13:30:31.545Z,961.58
2017-10-03T13:31:41.828Z,961.47
2017-10-03T13:32:51.780Z,961.51
2017-10-03T13:34:01.734Z,961.48
2017-10-03T13:35:12.010Z,961.49
2017-10-03T13:36:21.643Z,961.47
2017-10-03T13:37:31.282Z,961.53
2017-10-03T13:38:41.617Z,961.54
2017-10-03T13:39:50.924Z,961.51
2017-10-03T13:41:01.201Z,961.5
2017-10-03T13:42:11.157Z,961.5
2017-10-03T13:43:21.440Z,961.5
2017-10-03T13:44:31.408Z,961.48
2017-10-03T13:45:41.363Z,961.55
2017-10-03T13:46:51.319Z,961.51
2017-10-03T13:48:01.594Z,961.51
2017-10-03T13:49:11.547Z,961.51
2017-10-03T13:50:21.498Z,961.48
2017-10-03T13:51:31.128Z,961.49
2017-10-03T13:52:41.403Z,961.47
2017-10-03T13:53:51.350Z,961.53
2017-10-03T13:55:01.622Z,961.49
2017-10-03T13:56:11.593Z,961.53
2017-10-03T13:57:21.544Z,961.47
2017-10-03T13:58:31.820Z,961.46
2017-10-03T13:59:42.096Z,961.49
2017-10-03T14:00:52.052Z,961.56
2017-10-03T14:02:02.327Z,961.55
2017-10-03T14:03:12.601Z,961.53
2017-10-03T14:04:22.878Z,961.51
2017-10-03T14:05:32.832Z,961.48
2017-10-03T14:06:43.116Z,961.54
2017-10-03T14:07:52.424Z,961.51
2017-10-03T14:09:02.050Z,961.52
2017-10-03T14:10:12.329Z,961.54
2017-10-03T14:11:22.289Z,961.44
2017-10-03T14:12:31.941Z,961.51
2017-10-03T14:13:42.211Z,961.47
2017-10-03T14:14:52.482Z,961.44
2017-10-03T14:16:02.440Z,961.43
2017-10-03T14:17:12.070Z,961.41
2017-10-03T14:18:22.346Z,961.38
2017-10-03T14:19:32.621Z,961.41
2017-10-03T14:20:42.903Z,961.49
2017-10-03T14:21:52.542Z,961.46
2017-10-03T14:23:02.823Z,961.45
2017-10-03T14:24:13.105Z,961.46
2017-10-03T14:25:23.389Z,961.5
2017-10-03T14:26:33.340Z,961.43
2017-10-03T14:27:43.297Z,961.49
2017-10-03T14:28:52.934Z,961.43
2017-10-03T14:30:02.895Z,961.53
2017-10-03T14:31:12.848Z,961.46
2017-10-03T14:32:22.799Z,961.46
2017-10-03T14:33:32.430Z,961.36
2017-10-03T14:34:41.744Z,961.41
2017-10-03T14:35:52.014Z,961.39
2017-10-03T14:37:01.967Z,961.38
2017-10-03T14:38:11.917Z,961.4
2017-10-03T14:39:21.867Z,961.38
2017-10-03T14:40:32.139Z,961.42
2017-10-03T14:41:42.417Z,961.42
2017-10-03T14:42:52.049Z,961.42